Tropical Cyclones
[Index]
Main Index Home Page Stock Weather Photos Extreme Storms Discussion Storm News and Storm Chasing Reports Tropical Cyclones / Hurricanes / Typhoons Weather Data and Links Wild Fires / Bushfires Weather Observation Techniques Weather Picture Catalogue Tornado Pictures and Reports Stock Video Footage and DVDs for sale
Season 2017-2018 Tropical Cyclone ELIAKIM Track Map
Season 2017-2018 Summaries (Operational Data): [AU] [SIO] [SPAC] [SH]
<<- Previous TC | 2017-2018 Season | Next TC ->>

click for intensity scale information  Lat/long Grid: Show Hide

 Date Labels: Show Hide

Operational Tropical Cyclone Data : JTWC Advisories

Name: ELIAKIM
Number: 1814

06 Mar 2018 06:00 UTC to 21 Mar 2018 06:00 UTC

    date/time    lat    long     hPa   cat  kts
2018-03-06 06   10.9    69.4    1010         15          
2018-03-06 12   10.9    69.2    1010         15          
2018-03-06 18   11.0    69.0    1010         15          
2018-03-07 00   11.1    68.8    1010         15          
2018-03-07 06   12.6    69.9    1007         20          
2018-03-07 12   12.6    69.4    1007         20          
2018-03-07 18   12.6    69.0    1006         20          
2018-03-08 00   13.0    68.5    1007         20          
2018-03-08 06   11.9    72.1    1007         20          
2018-03-08 12   12.3    71.8    1007         20          
2018-03-08 18   12.6    71.2    1007         20          
2018-03-09 00   12.4    70.5    1004         25          
2018-03-09 06   12.2    69.7    1004         25          
2018-03-09 12   12.0    68.7    1004         25          
2018-03-09 18   12.5    68.4    1004         25          
2018-03-10 00   13.0    67.6    1004         25          
2018-03-10 06   13.2    67.0    1007         15          
2018-03-10 12   13.1    66.1    1007         15          
2018-03-10 18   12.9    64.7    1006         20          
2018-03-11 00   12.8    64.2    1007         20          
2018-03-11 06   12.8    63.6    1010         15          
2018-03-11 12   13.0    62.8    1009         15          
2018-03-11 18   12.8    61.8    1007         20          
2018-03-12 00   12.3    60.4    1005         20          
2018-03-12 06   11.7    58.3    1005         20          
2018-03-12 12   11.9    57.7    1007         20          
2018-03-12 18   12.5    57.6    1008         20          
2018-03-13 00   12.6    58.1    1007         20          
2018-03-13 06   12.2    57.5    1004         25          
2018-03-13 12   12.1    57.2    1001         25          
2018-03-13 18   12.1    56.9    1003         25          
2018-03-14 00   12.5    56.4    1002         30          
2018-03-14 06   12.9    56.0    1000         30          
2018-03-14 12   13.4    55.6     997         30          
2018-03-14 18   13.9    55.1    1000         30          
2018-03-15 00   14.4    54.5     998    1    35          
2018-03-15 06   14.9    53.9     992    1    45          
2018-03-15 12   15.2    53.0     990    2    50          
2018-03-15 18   15.7    51.9     994    2    50          
2018-03-16 00   15.8    51.2     989    2    55          
2018-03-16 06   15.8    50.5     989    2    55          
2018-03-16 12   15.8    50.0     978    2    60          
2018-03-16 18   15.8    49.8     989    2    55          
2018-03-17 00   15.8    49.6     994    1    45          
2018-03-17 06   15.9    49.4     994    1    45          
2018-03-17 12   16.5    49.5     994    1    40          
2018-03-17 18   17.3    49.6     997    1    35          
2018-03-18 00   18.4    49.7     997    1    35          
2018-03-18 06   19.2    49.5     989    1    45          
2018-03-18 12   20.1    49.5     993    1    45          
2018-03-18 18   21.2    49.5     992    1    45          
2018-03-19 00   22.2    49.7     992    1    45          
2018-03-19 06   23.3    50.2     987    1    45          
2018-03-19 12   24.6    50.8     989    1    45          
2018-03-19 18   25.4    51.5     990    1    45          
2018-03-20 00   26.3    52.1     990    1    45          
2018-03-20 06   27.6    53.0     989    1    45          
2018-03-20 12   28.7    53.8     989    1    45          
2018-03-20 18   30.1    54.7     991    1    45          
2018-03-21 00   31.6    55.5     989    1    45          
2018-03-21 06   33.3    54.9     989    1    45          
Winds are 10-min average.

Tropical cyclone tracks developed by Michael Bath using operational warnings and advisories and Google Maps.


[Australian Severe Weather index] [Copyright Notice] [Email Contacts] [Search This Site] [Privacy Policy]
Document: tropical_cyclone_eliakim.htm Updated: 11 March 2020